sensor_id;sensor_type;location;lat;lon;timestamp;P1;durP1;ratioP1;P2;durP2;ratioP2
31990;SDS011;18508;49.386;8.370;2023-04-25T00:01:20;5.18;;;3.28;;
31990;SDS011;18508;49.386;8.370;2023-04-25T00:03:49;6.30;;;3.45;;
31990;SDS011;18508;49.386;8.370;2023-04-25T00:06:20;4.90;;;3.25;;
31990;SDS011;18508;49.386;8.370;2023-04-25T00:08:50;4.95;;;3.28;;
31990;SDS011;18508;49.386;8.370;2023-04-25T00:11:18;7.03;;;3.70;;
31990;SDS011;18508;49.386;8.370;2023-04-25T00:13:46;6.28;;;3.80;;
31990;SDS011;18508;49.386;8.370;2023-04-25T00:16:16;4.90;;;3.25;;
31990;SDS011;18508;49.386;8.370;2023-04-25T00:18:44;5.28;;;3.33;;
31990;SDS011;18508;49.386;8.370;2023-04-25T00:21:17;5.82;;;3.40;;
31990;SDS011;18508;49.386;8.370;2023-04-25T00:23:46;6.93;;;3.70;;
31990;SDS011;18508;49.386;8.370;2023-04-25T00:26:17;6.10;;;3.78;;
31990;SDS011;18508;49.386;8.370;2023-04-25T00:28:47;6.00;;;3.45;;
31990;SDS011;18508;49.386;8.370;2023-04-25T00:31:16;7.43;;;3.90;;
31990;SDS011;18508;49.386;8.370;2023-04-25T00:33:44;7.15;;;3.92;;
31990;SDS011;18508;49.386;8.370;2023-04-25T00:36:13;6.22;;;3.60;;
31990;SDS011;18508;49.386;8.370;2023-04-25T00:38:41;5.38;;;3.40;;
31990;SDS011;18508;49.386;8.370;2023-04-25T00:41:09;5.70;;;3.55;;
31990;SDS011;18508;49.386;8.370;2023-04-25T00:43:39;5.05;;;3.38;;
31990;SDS011;18508;49.386;8.370;2023-04-25T00:46:07;5.20;;;3.53;;
31990;SDS011;18508;49.386;8.370;2023-04-25T00:48:36;5.45;;;3.22;;
31990;SDS011;18508;49.386;8.370;2023-04-25T00:51:04;6.30;;;3.70;;
31990;SDS011;18508;49.386;8.370;2023-04-25T00:53:32;6.57;;;3.53;;
31990;SDS011;18508;49.386;8.370;2023-04-25T00:56:01;4.45;;;2.80;;
31990;SDS011;18508;49.386;8.370;2023-04-25T00:58:31;6.00;;;3.25;;
31990;SDS011;18508;49.386;8.370;2023-04-25T01:01:00;5.18;;;2.83;;
31990;SDS011;18508;49.386;8.370;2023-04-25T01:03:30;5.75;;;3.58;;
31990;SDS011;18508;49.386;8.370;2023-04-25T01:06:02;6.47;;;3.75;;
31990;SDS011;18508;49.386;8.370;2023-04-25T01:08:30;6.38;;;3.13;;
31990;SDS011;18508;49.386;8.370;2023-04-25T01:10:59;6.50;;;4.32;;
31990;SDS011;18508;49.386;8.370;2023-04-25T01:13:27;6.13;;;3.17;;
31990;SDS011;18508;49.386;8.370;2023-04-25T01:15:55;6.10;;;3.70;;
31990;SDS011;18508;49.386;8.370;2023-04-25T01:18:25;5.05;;;3.35;;
31990;SDS011;18508;49.386;8.370;2023-04-25T01:21:02;7.07;;;3.88;;
31990;SDS011;18508;49.386;8.370;2023-04-25T01:23:34;6.05;;;3.67;;
31990;SDS011;18508;49.386;8.370;2023-04-25T01:26:03;7.50;;;3.80;;
31990;SDS011;18508;49.386;8.370;2023-04-25T01:28:31;6.55;;;3.72;;
31990;SDS011;18508;49.386;8.370;2023-04-25T01:31:02;5.93;;;3.90;;
31990;SDS011;18508;49.386;8.370;2023-04-25T01:33:30;7.32;;;3.83;;
31990;SDS011;18508;49.386;8.370;2023-04-25T01:35:58;6.57;;;3.65;;
31990;SDS011;18508;49.386;8.370;2023-04-25T01:38:28;5.93;;;3.33;;
31990;SDS011;18508;49.386;8.370;2023-04-25T01:40:57;7.88;;;3.72;;
31990;SDS011;18508;49.386;8.370;2023-04-25T01:43:27;6.18;;;3.70;;
31990;SDS011;18508;49.386;8.370;2023-04-25T01:45:56;8.25;;;4.28;;
31990;SDS011;18508;49.386;8.370;2023-04-25T01:48:25;8.75;;;4.30;;
31990;SDS011;18508;49.386;8.370;2023-04-25T01:50:56;6.18;;;3.88;;
31990;SDS011;18508;49.386;8.370;2023-04-25T01:53:25;9.10;;;4.72;;
31990;SDS011;18508;49.386;8.370;2023-04-25T01:55:55;6.65;;;4.00;;
31990;SDS011;18508;49.386;8.370;2023-04-25T01:58:23;7.28;;;4.20;;
31990;SDS011;18508;49.386;8.370;2023-04-25T02:00:51;10.73;;;5.03;;
31990;SDS011;18508;49.386;8.370;2023-04-25T02:03:19;8.60;;;4.70;;
31990;SDS011;18508;49.386;8.370;2023-04-25T02:05:47;8.73;;;4.57;;
31990;SDS011;18508;49.386;8.370;2023-04-25T02:08:17;7.72;;;4.75;;
31990;SDS011;18508;49.386;8.370;2023-04-25T02:10:46;9.65;;;4.93;;
31990;SDS011;18508;49.386;8.370;2023-04-25T02:13:14;8.15;;;4.88;;
31990;SDS011;18508;49.386;8.370;2023-04-25T02:15:43;8.70;;;5.05;;
31990;SDS011;18508;49.386;8.370;2023-04-25T02:18:11;9.90;;;5.53;;
31990;SDS011;18508;49.386;8.370;2023-04-25T02:20:42;9.20;;;5.75;;
31990;SDS011;18508;49.386;8.370;2023-04-25T02:23:10;9.90;;;5.93;;
31990;SDS011;18508;49.386;8.370;2023-04-25T02:25:39;8.13;;;5.25;;
31990;SDS011;18508;49.386;8.370;2023-04-25T02:28:09;9.23;;;5.90;;
31990;SDS011;18508;49.386;8.370;2023-04-25T02:30:38;8.55;;;5.07;;
31990;SDS011;18508;49.386;8.370;2023-04-25T02:33:07;9.43;;;6.15;;
31990;SDS011;18508;49.386;8.370;2023-04-25T02:35:36;10.05;;;5.97;;
31990;SDS011;18508;49.386;8.370;2023-04-25T02:38:04;12.07;;;5.93;;
31990;SDS011;18508;49.386;8.370;2023-04-25T02:40:35;11.40;;;6.00;;
31990;SDS011;18508;49.386;8.370;2023-04-25T02:43:03;12.13;;;6.63;;
31990;SDS011;18508;49.386;8.370;2023-04-25T02:45:36;12.95;;;6.18;;
31990;SDS011;18508;49.386;8.370;2023-04-25T02:48:04;12.07;;;6.93;;
31990;SDS011;18508;49.386;8.370;2023-04-25T02:50:33;10.15;;;6.43;;
31990;SDS011;18508;49.386;8.370;2023-04-25T02:53:01;10.85;;;5.85;;
31990;SDS011;18508;49.386;8.370;2023-04-25T02:55:30;11.98;;;5.97;;
31990;SDS011;18508;49.386;8.370;2023-04-25T02:57:59;12.27;;;6.72;;
31990;SDS011;18508;49.386;8.370;2023-04-25T03:00:28;11.75;;;6.78;;
31990;SDS011;18508;49.386;8.370;2023-04-25T03:02:57;11.23;;;6.70;;
31990;SDS011;18508;49.386;8.370;2023-04-25T03:05:26;12.43;;;6.10;;
31990;SDS011;18508;49.386;8.370;2023-04-25T03:07:54;10.68;;;6.47;;
31990;SDS011;18508;49.386;8.370;2023-04-25T03:10:23;13.48;;;7.25;;
31990;SDS011;18508;49.386;8.370;2023-04-25T03:12:51;11.13;;;7.03;;
31990;SDS011;18508;49.386;8.370;2023-04-25T03:15:19;11.50;;;6.72;;
31990;SDS011;18508;49.386;8.370;2023-04-25T03:17:48;11.27;;;6.45;;
31990;SDS011;18508;49.386;8.370;2023-04-25T03:20:18;13.15;;;6.32;;
31990;SDS011;18508;49.386;8.370;2023-04-25T03:22:46;9.85;;;5.93;;
31990;SDS011;18508;49.386;8.370;2023-04-25T03:25:14;12.63;;;7.20;;
31990;SDS011;18508;49.386;8.370;2023-04-25T03:27:42;13.73;;;6.60;;
31990;SDS011;18508;49.386;8.370;2023-04-25T03:30:11;11.82;;;5.82;;
31990;SDS011;18508;49.386;8.370;2023-04-25T03:32:39;9.80;;;5.60;;
31990;SDS011;18508;49.386;8.370;2023-04-25T03:35:08;12.10;;;5.95;;
31990;SDS011;18508;49.386;8.370;2023-04-25T03:37:37;9.95;;;5.75;;
31990;SDS011;18508;49.386;8.370;2023-04-25T03:40:07;9.60;;;6.10;;
31990;SDS011;18508;49.386;8.370;2023-04-25T03:42:35;11.35;;;5.53;;
31990;SDS011;18508;49.386;8.370;2023-04-25T03:45:04;9.40;;;5.55;;
31990;SDS011;18508;49.386;8.370;2023-04-25T03:47:33;11.43;;;5.78;;
31990;SDS011;18508;49.386;8.370;2023-04-25T03:50:01;10.90;;;6.20;;
31990;SDS011;18508;49.386;8.370;2023-04-25T03:52:31;13.52;;;6.85;;
31990;SDS011;18508;49.386;8.370;2023-04-25T03:55:01;9.88;;;5.70;;
31990;SDS011;18508;49.386;8.370;2023-04-25T03:57:30;11.80;;;5.95;;
31990;SDS011;18508;49.386;8.370;2023-04-25T03:59:59;12.65;;;6.25;;
31990;SDS011;18508;49.386;8.370;2023-04-25T04:02:27;8.88;;;5.55;;
31990;SDS011;18508;49.386;8.370;2023-04-25T04:04:57;10.02;;;5.10;;
31990;SDS011;18508;49.386;8.370;2023-04-25T04:07:25;10.45;;;5.80;;
31990;SDS011;18508;49.386;8.370;2023-04-25T04:09:53;10.90;;;6.05;;
31990;SDS011;18508;49.386;8.370;2023-04-25T04:12:23;11.73;;;5.70;;
31990;SDS011;18508;49.386;8.370;2023-04-25T04:14:51;10.55;;;5.63;;
31990;SDS011;18508;49.386;8.370;2023-04-25T04:17:19;10.65;;;6.43;;
31990;SDS011;18508;49.386;8.370;2023-04-25T04:19:48;10.45;;;5.40;;
31990;SDS011;18508;49.386;8.370;2023-04-25T04:22:20;11.82;;;6.15;;
31990;SDS011;18508;49.386;8.370;2023-04-25T04:24:48;11.20;;;6.18;;
31990;SDS011;18508;49.386;8.370;2023-04-25T04:27:18;11.18;;;6.25;;
31990;SDS011;18508;49.386;8.370;2023-04-25T04:29:49;9.48;;;5.57;;
31990;SDS011;18508;49.386;8.370;2023-04-25T04:32:18;9.98;;;6.05;;
31990;SDS011;18508;49.386;8.370;2023-04-25T04:34:46;11.55;;;5.80;;
31990;SDS011;18508;49.386;8.370;2023-04-25T04:37:15;12.20;;;5.68;;
31990;SDS011;18508;49.386;8.370;2023-04-25T04:39:44;10.25;;;6.15;;
31990;SDS011;18508;49.386;8.370;2023-04-25T04:42:13;10.65;;;6.20;;
31990;SDS011;18508;49.386;8.370;2023-04-25T04:44:41;11.57;;;6.47;;
31990;SDS011;18508;49.386;8.370;2023-04-25T04:47:12;10.52;;;6.40;;
31990;SDS011;18508;49.386;8.370;2023-04-25T04:49:41;10.57;;;6.15;;
31990;SDS011;18508;49.386;8.370;2023-04-25T04:52:09;9.98;;;6.00;;
31990;SDS011;18508;49.386;8.370;2023-04-25T04:54:38;10.40;;;5.82;;
31990;SDS011;18508;49.386;8.370;2023-04-25T04:57:06;9.13;;;5.18;;
31990;SDS011;18508;49.386;8.370;2023-04-25T04:59:35;10.55;;;6.20;;
31990;SDS011;18508;49.386;8.370;2023-04-25T05:02:03;10.90;;;6.15;;
31990;SDS011;18508;49.386;8.370;2023-04-25T05:04:33;11.23;;;5.85;;
31990;SDS011;18508;49.386;8.370;2023-04-25T05:07:01;10.35;;;6.45;;
31990;SDS011;18508;49.386;8.370;2023-04-25T05:09:29;11.60;;;6.63;;
31990;SDS011;18508;49.386;8.370;2023-04-25T05:11:58;12.02;;;7.82;;
31990;SDS011;18508;49.386;8.370;2023-04-25T05:14:28;12.18;;;7.03;;
31990;SDS011;18508;49.386;8.370;2023-04-25T05:16:57;11.55;;;7.03;;
31990;SDS011;18508;49.386;8.370;2023-04-25T05:19:25;12.85;;;6.55;;
31990;SDS011;18508;49.386;8.370;2023-04-25T05:21:55;12.80;;;6.55;;
31990;SDS011;18508;49.386;8.370;2023-04-25T05:24:23;11.95;;;7.03;;
31990;SDS011;18508;49.386;8.370;2023-04-25T05:26:52;12.02;;;7.10;;
31990;SDS011;18508;49.386;8.370;2023-04-25T05:29:20;10.70;;;6.78;;
31990;SDS011;18508;49.386;8.370;2023-04-25T05:31:48;9.95;;;6.07;;
31990;SDS011;18508;49.386;8.370;2023-04-25T05:34:16;13.40;;;6.80;;
31990;SDS011;18508;49.386;8.370;2023-04-25T05:36:45;13.15;;;7.50;;
31990;SDS011;18508;49.386;8.370;2023-04-25T05:39:19;12.48;;;7.80;;
31990;SDS011;18508;49.386;8.370;2023-04-25T05:41:47;11.52;;;6.78;;
31990;SDS011;18508;49.386;8.370;2023-04-25T05:44:15;12.10;;;7.18;;
31990;SDS011;18508;49.386;8.370;2023-04-25T05:46:43;12.73;;;6.70;;
31990;SDS011;18508;49.386;8.370;2023-04-25T05:49:12;11.38;;;6.47;;
31990;SDS011;18508;49.386;8.370;2023-04-25T05:51:43;12.10;;;6.63;;
31990;SDS011;18508;49.386;8.370;2023-04-25T05:54:11;12.30;;;7.75;;
31990;SDS011;18508;49.386;8.370;2023-04-25T05:56:42;12.30;;;7.05;;
31990;SDS011;18508;49.386;8.370;2023-04-25T05:59:11;11.80;;;6.80;;
31990;SDS011;18508;49.386;8.370;2023-04-25T06:01:39;10.70;;;7.03;;
31990;SDS011;18508;49.386;8.370;2023-04-25T06:04:07;10.20;;;6.25;;
31990;SDS011;18508;49.386;8.370;2023-04-25T06:06:36;11.30;;;6.40;;
31990;SDS011;18508;49.386;8.370;2023-04-25T06:09:04;13.27;;;7.13;;
31990;SDS011;18508;49.386;8.370;2023-04-25T06:11:32;11.00;;;6.53;;
31990;SDS011;18508;49.386;8.370;2023-04-25T06:14:05;12.20;;;7.82;;
31990;SDS011;18508;49.386;8.370;2023-04-25T06:16:34;13.45;;;7.40;;
31990;SDS011;18508;49.386;8.370;2023-04-25T06:19:02;12.23;;;7.45;;
31990;SDS011;18508;49.386;8.370;2023-04-25T06:21:31;14.15;;;7.80;;
31990;SDS011;18508;49.386;8.370;2023-04-25T06:23:59;14.18;;;7.78;;
31990;SDS011;18508;49.386;8.370;2023-04-25T06:26:27;13.15;;;8.32;;
31990;SDS011;18508;49.386;8.370;2023-04-25T06:28:56;15.85;;;8.57;;
31990;SDS011;18508;49.386;8.370;2023-04-25T06:31:25;12.85;;;7.82;;
31990;SDS011;18508;49.386;8.370;2023-04-25T06:33:55;12.98;;;8.00;;
31990;SDS011;18508;49.386;8.370;2023-04-25T06:36:24;18.30;;;9.45;;
31990;SDS011;18508;49.386;8.370;2023-04-25T06:38:54;16.17;;;8.77;;
31990;SDS011;18508;49.386;8.370;2023-04-25T06:41:22;16.13;;;8.30;;
31990;SDS011;18508;49.386;8.370;2023-04-25T06:43:50;13.73;;;7.65;;
31990;SDS011;18508;49.386;8.370;2023-04-25T06:46:18;13.98;;;8.10;;
31990;SDS011;18508;49.386;8.370;2023-04-25T06:48:48;14.18;;;8.15;;
31990;SDS011;18508;49.386;8.370;2023-04-25T06:51:19;18.08;;;8.90;;
31990;SDS011;18508;49.386;8.370;2023-04-25T06:53:49;17.05;;;8.40;;
31990;SDS011;18508;49.386;8.370;2023-04-25T06:56:19;13.60;;;7.72;;
31990;SDS011;18508;49.386;8.370;2023-04-25T06:58:49;13.27;;;8.05;;
31990;SDS011;18508;49.386;8.370;2023-04-25T07:01:18;13.63;;;8.20;;
31990;SDS011;18508;49.386;8.370;2023-04-25T07:03:48;16.48;;;9.25;;
31990;SDS011;18508;49.386;8.370;2023-04-25T07:06:16;16.05;;;9.02;;
31990;SDS011;18508;49.386;8.370;2023-04-25T07:08:44;14.93;;;8.50;;
31990;SDS011;18508;49.386;8.370;2023-04-25T07:11:13;15.88;;;9.18;;
31990;SDS011;18508;49.386;8.370;2023-04-25T07:13:41;17.20;;;9.10;;
31990;SDS011;18508;49.386;8.370;2023-04-25T07:16:09;15.48;;;8.48;;
31990;SDS011;18508;49.386;8.370;2023-04-25T07:18:38;18.55;;;9.38;;
31990;SDS011;18508;49.386;8.370;2023-04-25T07:21:09;15.65;;;9.18;;
31990;SDS011;18508;49.386;8.370;2023-04-25T07:23:38;13.82;;;8.68;;
31990;SDS011;18508;49.386;8.370;2023-04-25T07:26:07;14.52;;;7.43;;
31990;SDS011;18508;49.386;8.370;2023-04-25T07:28:35;18.75;;;8.52;;
31990;SDS011;18508;49.386;8.370;2023-04-25T07:31:04;14.10;;;7.20;;
31990;SDS011;18508;49.386;8.370;2023-04-25T07:33:33;12.77;;;6.72;;
31990;SDS011;18508;49.386;8.370;2023-04-25T07:36:01;16.73;;;7.97;;
31990;SDS011;18508;49.386;8.370;2023-04-25T07:38:30;19.02;;;8.27;;
31990;SDS011;18508;49.386;8.370;2023-04-25T07:40:59;17.13;;;6.93;;
31990;SDS011;18508;49.386;8.370;2023-04-25T07:43:27;18.17;;;6.78;;
31990;SDS011;18508;49.386;8.370;2023-04-25T07:45:55;11.65;;;6.18;;
31990;SDS011;18508;49.386;8.370;2023-04-25T07:48:24;16.75;;;6.75;;
31990;SDS011;18508;49.386;8.370;2023-04-25T07:50:52;15.73;;;6.60;;
31990;SDS011;18508;49.386;8.370;2023-04-25T07:53:20;15.77;;;6.90;;
31990;SDS011;18508;49.386;8.370;2023-04-25T07:55:50;17.05;;;6.25;;
31990;SDS011;18508;49.386;8.370;2023-04-25T07:58:18;16.65;;;7.07;;
31990;SDS011;18508;49.386;8.370;2023-04-25T08:00:48;14.20;;;6.85;;
31990;SDS011;18508;49.386;8.370;2023-04-25T08:03:16;15.23;;;6.95;;
31990;SDS011;18508;49.386;8.370;2023-04-25T08:05:45;14.27;;;6.60;;
31990;SDS011;18508;49.386;8.370;2023-04-25T08:08:14;17.77;;;6.72;;
31990;SDS011;18508;49.386;8.370;2023-04-25T08:10:42;14.35;;;6.82;;
31990;SDS011;18508;49.386;8.370;2023-04-25T08:13:13;16.08;;;7.47;;
31990;SDS011;18508;49.386;8.370;2023-04-25T08:15:41;15.85;;;7.20;;
31990;SDS011;18508;49.386;8.370;2023-04-25T08:18:09;16.85;;;6.57;;
31990;SDS011;18508;49.386;8.370;2023-04-25T08:20:40;16.27;;;7.22;;
31990;SDS011;18508;49.386;8.370;2023-04-25T08:23:08;15.05;;;7.43;;
31990;SDS011;18508;49.386;8.370;2023-04-25T08:25:37;13.27;;;7.00;;
31990;SDS011;18508;49.386;8.370;2023-04-25T08:28:05;12.30;;;6.65;;
31990;SDS011;18508;49.386;8.370;2023-04-25T08:30:36;16.85;;;6.75;;
31990;SDS011;18508;49.386;8.370;2023-04-25T08:33:04;18.35;;;7.15;;
31990;SDS011;18508;49.386;8.370;2023-04-25T08:35:32;16.98;;;8.63;;
31990;SDS011;18508;49.386;8.370;2023-04-25T08:38:01;18.05;;;7.70;;
31990;SDS011;18508;49.386;8.370;2023-04-25T08:40:29;18.08;;;8.18;;
31990;SDS011;18508;49.386;8.370;2023-04-25T08:43:06;16.75;;;7.70;;
31990;SDS011;18508;49.386;8.370;2023-04-25T08:45:40;16.15;;;7.43;;
31990;SDS011;18508;49.386;8.370;2023-04-25T08:48:10;14.38;;;7.00;;
31990;SDS011;18508;49.386;8.370;2023-04-25T08:50:39;16.00;;;7.38;;
31990;SDS011;18508;49.386;8.370;2023-04-25T08:53:12;17.02;;;6.82;;
31990;SDS011;18508;49.386;8.370;2023-04-25T08:55:45;19.42;;;7.22;;
31990;SDS011;18508;49.386;8.370;2023-04-25T08:58:13;14.93;;;7.63;;
31990;SDS011;18508;49.386;8.370;2023-04-25T09:00:44;15.48;;;7.60;;
31990;SDS011;18508;49.386;8.370;2023-04-25T09:03:14;12.32;;;6.65;;
31990;SDS011;18508;49.386;8.370;2023-04-25T09:05:42;15.85;;;7.13;;
31990;SDS011;18508;49.386;8.370;2023-04-25T09:08:11;14.88;;;6.70;;
31990;SDS011;18508;49.386;8.370;2023-04-25T09:10:40;12.07;;;6.10;;
31990;SDS011;18508;49.386;8.370;2023-04-25T09:13:09;14.30;;;6.32;;
31990;SDS011;18508;49.386;8.370;2023-04-25T09:15:48;13.43;;;5.85;;
31990;SDS011;18508;49.386;8.370;2023-04-25T09:18:24;11.32;;;5.20;;
31990;SDS011;18508;49.386;8.370;2023-04-25T09:20:56;12.93;;;5.43;;
31990;SDS011;18508;49.386;8.370;2023-04-25T09:23:39;11.63;;;6.03;;
31990;SDS011;18508;49.386;8.370;2023-04-25T09:26:08;15.38;;;6.40;;
31990;SDS011;18508;49.386;8.370;2023-04-25T09:28:36;11.52;;;6.25;;
31990;SDS011;18508;49.386;8.370;2023-04-25T09:31:06;13.43;;;5.85;;
31990;SDS011;18508;49.386;8.370;2023-04-25T09:33:38;14.40;;;5.80;;
31990;SDS011;18508;49.386;8.370;2023-04-25T09:36:08;14.15;;;6.00;;
31990;SDS011;18508;49.386;8.370;2023-04-25T09:38:39;20.10;;;6.00;;
31990;SDS011;18508;49.386;8.370;2023-04-25T09:41:09;13.93;;;5.72;;
31990;SDS011;18508;49.386;8.370;2023-04-25T09:43:38;13.77;;;5.47;;
31990;SDS011;18508;49.386;8.370;2023-04-25T09:46:09;9.00;;;5.15;;
31990;SDS011;18508;49.386;8.370;2023-04-25T09:48:38;11.70;;;5.18;;
31990;SDS011;18508;49.386;8.370;2023-04-25T09:51:07;11.13;;;5.30;;
31990;SDS011;18508;49.386;8.370;2023-04-25T09:53:38;8.40;;;4.63;;
31990;SDS011;18508;49.386;8.370;2023-04-25T09:56:10;10.18;;;5.28;;
31990;SDS011;18508;49.386;8.370;2023-04-25T09:58:39;13.02;;;5.03;;
31990;SDS011;18508;49.386;8.370;2023-04-25T10:01:10;8.60;;;4.85;;
31990;SDS011;18508;49.386;8.370;2023-04-25T10:03:40;12.07;;;4.00;;
31990;SDS011;18508;49.386;8.370;2023-04-25T10:06:11;10.50;;;4.32;;
31990;SDS011;18508;49.386;8.370;2023-04-25T10:08:41;9.52;;;5.00;;
31990;SDS011;18508;49.386;8.370;2023-04-25T10:11:11;10.20;;;4.90;;
31990;SDS011;18508;49.386;8.370;2023-04-25T10:13:42;9.68;;;4.13;;
31990;SDS011;18508;49.386;8.370;2023-04-25T10:16:12;8.60;;;4.05;;
31990;SDS011;18508;49.386;8.370;2023-04-25T10:18:40;13.13;;;4.72;;
31990;SDS011;18508;49.386;8.370;2023-04-25T10:21:08;9.32;;;4.32;;
31990;SDS011;18508;49.386;8.370;2023-04-25T10:23:38;10.75;;;5.60;;
31990;SDS011;18508;49.386;8.370;2023-04-25T10:26:07;9.32;;;5.30;;
31990;SDS011;18508;49.386;8.370;2023-04-25T10:31:26;9.50;;;4.55;;
31990;SDS011;18508;49.386;8.370;2023-04-25T10:33:57;10.93;;;5.13;;
31990;SDS011;18508;49.386;8.370;2023-04-25T10:36:26;11.27;;;5.38;;
31990;SDS011;18508;49.386;8.370;2023-04-25T10:39:02;9.30;;;4.65;;
31990;SDS011;18508;49.386;8.370;2023-04-25T10:41:47;9.68;;;5.28;;
31990;SDS011;18508;49.386;8.370;2023-04-25T10:44:20;13.10;;;5.50;;
31990;SDS011;18508;49.386;8.370;2023-04-25T10:46:50;12.63;;;5.57;;
31990;SDS011;18508;49.386;8.370;2023-04-25T10:49:28;13.35;;;5.20;;
31990;SDS011;18508;49.386;8.370;2023-04-25T10:52:11;12.43;;;5.40;;
31990;SDS011;18508;49.386;8.370;2023-04-25T10:54:48;13.15;;;5.65;;
31990;SDS011;18508;49.386;8.370;2023-04-25T10:57:32;12.30;;;5.53;;
31990;SDS011;18508;49.386;8.370;2023-04-25T11:00:07;10.50;;;4.95;;
31990;SDS011;18508;49.386;8.370;2023-04-25T11:02:39;11.05;;;4.72;;
31990;SDS011;18508;49.386;8.370;2023-04-25T11:05:23;9.50;;;4.78;;
31990;SDS011;18508;49.386;8.370;2023-04-25T11:07:59;10.57;;;5.40;;
31990;SDS011;18508;49.386;8.370;2023-04-25T11:10:33;9.38;;;4.72;;
31990;SDS011;18508;49.386;8.370;2023-04-25T11:13:03;10.35;;;5.40;;
31990;SDS011;18508;49.386;8.370;2023-04-25T11:15:31;9.02;;;4.78;;
31990;SDS011;18508;49.386;8.370;2023-04-25T11:18:03;11.40;;;4.88;;
31990;SDS011;18508;49.386;8.370;2023-04-25T11:20:33;7.65;;;4.78;;
31990;SDS011;18508;49.386;8.370;2023-04-25T11:23:01;10.85;;;5.65;;
31990;SDS011;18508;49.386;8.370;2023-04-25T11:25:34;8.10;;;4.88;;
31990;SDS011;18508;49.386;8.370;2023-04-25T11:28:04;8.13;;;4.88;;
31990;SDS011;18508;49.386;8.370;2023-04-25T11:30:32;8.90;;;4.20;;
31990;SDS011;18508;49.386;8.370;2023-04-25T11:33:00;8.27;;;4.95;;
31990;SDS011;18508;49.386;8.370;2023-04-25T11:35:31;9.55;;;4.68;;
31990;SDS011;18508;49.386;8.370;2023-04-25T11:38:00;8.63;;;4.32;;
31990;SDS011;18508;49.386;8.370;2023-04-25T11:40:30;9.07;;;4.95;;
31990;SDS011;18508;49.386;8.370;2023-04-25T11:42:59;11.85;;;4.85;;
31990;SDS011;18508;49.386;8.370;2023-04-25T11:45:28;7.85;;;4.18;;
31990;SDS011;18508;49.386;8.370;2023-04-25T11:47:57;9.60;;;4.68;;
31990;SDS011;18508;49.386;8.370;2023-04-25T11:50:25;10.43;;;5.07;;
31990;SDS011;18508;49.386;8.370;2023-04-25T11:52:57;8.32;;;4.47;;
31990;SDS011;18508;49.386;8.370;2023-04-25T11:55:25;9.85;;;4.72;;
31990;SDS011;18508;49.386;8.370;2023-04-25T11:57:59;8.95;;;4.47;;
31990;SDS011;18508;49.386;8.370;2023-04-25T12:00:28;9.07;;;4.38;;
31990;SDS011;18508;49.386;8.370;2023-04-25T12:02:56;10.05;;;4.00;;
31990;SDS011;18508;49.386;8.370;2023-04-25T12:05:27;6.95;;;3.97;;
31990;SDS011;18508;49.386;8.370;2023-04-25T12:08:10;6.18;;;3.90;;
31990;SDS011;18508;49.386;8.370;2023-04-25T12:10:40;8.10;;;4.10;;
31990;SDS011;18508;49.386;8.370;2023-04-25T12:13:22;6.22;;;4.13;;
31990;SDS011;18508;49.386;8.370;2023-04-25T12:15:52;11.13;;;4.30;;
31990;SDS011;18508;49.386;8.370;2023-04-25T12:18:23;7.32;;;4.55;;
31990;SDS011;18508;49.386;8.370;2023-04-25T12:20:53;9.23;;;4.90;;
31990;SDS011;18508;49.386;8.370;2023-04-25T12:23:27;10.45;;;4.75;;
31990;SDS011;18508;49.386;8.370;2023-04-25T12:25:56;8.63;;;4.40;;
31990;SDS011;18508;49.386;8.370;2023-04-25T12:28:25;9.68;;;4.72;;
31990;SDS011;18508;49.386;8.370;2023-04-25T12:30:55;8.32;;;4.60;;
31990;SDS011;18508;49.386;8.370;2023-04-25T12:33:25;9.02;;;4.75;;
31990;SDS011;18508;49.386;8.370;2023-04-25T12:35:54;8.02;;;4.45;;
31990;SDS011;18508;49.386;8.370;2023-04-25T12:38:24;6.70;;;4.38;;
31990;SDS011;18508;49.386;8.370;2023-04-25T12:40:54;6.18;;;3.78;;
31990;SDS011;18508;49.386;8.370;2023-04-25T12:43:22;9.60;;;3.92;;
31990;SDS011;18508;49.386;8.370;2023-04-25T12:45:51;5.60;;;3.75;;
31990;SDS011;18508;49.386;8.370;2023-04-25T12:48:21;9.93;;;3.45;;
31990;SDS011;18508;49.386;8.370;2023-04-25T12:50:50;5.40;;;3.55;;
31990;SDS011;18508;49.386;8.370;2023-04-25T12:53:19;7.80;;;3.97;;
31990;SDS011;18508;49.386;8.370;2023-04-25T12:55:50;5.88;;;3.55;;
31990;SDS011;18508;49.386;8.370;2023-04-25T12:58:20;6.55;;;3.90;;
31990;SDS011;18508;49.386;8.370;2023-04-25T13:00:50;8.25;;;3.92;;
31990;SDS011;18508;49.386;8.370;2023-04-25T13:03:19;7.38;;;3.75;;
31990;SDS011;18508;49.386;8.370;2023-04-25T13:05:48;7.22;;;3.70;;
31990;SDS011;18508;49.386;8.370;2023-04-25T13:08:16;7.57;;;3.78;;
31990;SDS011;18508;49.386;8.370;2023-04-25T13:10:44;6.57;;;3.80;;
31990;SDS011;18508;49.386;8.370;2023-04-25T13:13:13;7.78;;;3.50;;
31990;SDS011;18508;49.386;8.370;2023-04-25T13:15:44;9.02;;;3.45;;
31990;SDS011;18508;49.386;8.370;2023-04-25T13:18:12;6.22;;;3.15;;
31990;SDS011;18508;49.386;8.370;2023-04-25T13:20:41;8.23;;;4.03;;
31990;SDS011;18508;49.386;8.370;2023-04-25T13:23:10;6.90;;;3.70;;
31990;SDS011;18508;49.386;8.370;2023-04-25T13:25:38;6.85;;;3.83;;
31990;SDS011;18508;49.386;8.370;2023-04-25T13:28:06;8.35;;;4.18;;
31990;SDS011;18508;49.386;8.370;2023-04-25T13:30:37;10.05;;;3.72;;
31990;SDS011;18508;49.386;8.370;2023-04-25T13:33:07;7.47;;;4.43;;
31990;SDS011;18508;49.386;8.370;2023-04-25T13:35:37;9.70;;;4.30;;
31990;SDS011;18508;49.386;8.370;2023-04-25T13:38:05;6.90;;;4.30;;
31990;SDS011;18508;49.386;8.370;2023-04-25T13:40:35;8.07;;;3.83;;
31990;SDS011;18508;49.386;8.370;2023-04-25T13:43:03;6.68;;;4.00;;
31990;SDS011;18508;49.386;8.370;2023-04-25T13:45:32;9.95;;;4.70;;
31990;SDS011;18508;49.386;8.370;2023-04-25T13:48:01;9.20;;;4.50;;
31990;SDS011;18508;49.386;8.370;2023-04-25T13:50:31;10.30;;;4.95;;
31990;SDS011;18508;49.386;8.370;2023-04-25T13:52:59;9.27;;;4.47;;
31990;SDS011;18508;49.386;8.370;2023-04-25T13:55:27;8.27;;;4.07;;
31990;SDS011;18508;49.386;8.370;2023-04-25T13:57:55;10.10;;;4.65;;
31990;SDS011;18508;49.386;8.370;2023-04-25T14:00:23;10.35;;;4.60;;
31990;SDS011;18508;49.386;8.370;2023-04-25T14:02:54;9.68;;;4.35;;
31990;SDS011;18508;49.386;8.370;2023-04-25T14:05:22;7.53;;;4.18;;
31990;SDS011;18508;49.386;8.370;2023-04-25T14:07:53;9.95;;;4.93;;
31990;SDS011;18508;49.386;8.370;2023-04-25T14:10:21;10.25;;;4.88;;
31990;SDS011;18508;49.386;8.370;2023-04-25T14:12:50;9.95;;;4.75;;
31990;SDS011;18508;49.386;8.370;2023-04-25T14:15:18;9.88;;;4.60;;
31990;SDS011;18508;49.386;8.370;2023-04-25T14:17:47;10.50;;;4.95;;
31990;SDS011;18508;49.386;8.370;2023-04-25T14:20:16;10.73;;;4.97;;
31990;SDS011;18508;49.386;8.370;2023-04-25T14:22:46;8.60;;;4.22;;
31990;SDS011;18508;49.386;8.370;2023-04-25T14:25:16;12.98;;;4.88;;
31990;SDS011;18508;49.386;8.370;2023-04-25T14:27:45;9.35;;;4.93;;
31990;SDS011;18508;49.386;8.370;2023-04-25T14:30:16;9.15;;;4.57;;
31990;SDS011;18508;49.386;8.370;2023-04-25T14:32:44;11.60;;;4.47;;
31990;SDS011;18508;49.386;8.370;2023-04-25T14:35:13;9.50;;;4.60;;
31990;SDS011;18508;49.386;8.370;2023-04-25T14:37:41;9.20;;;4.30;;
31990;SDS011;18508;49.386;8.370;2023-04-25T14:40:10;8.98;;;4.78;;
31990;SDS011;18508;49.386;8.370;2023-04-25T14:42:42;9.95;;;4.80;;
31990;SDS011;18508;49.386;8.370;2023-04-25T14:45:11;11.40;;;4.32;;
31990;SDS011;18508;49.386;8.370;2023-04-25T14:47:39;9.38;;;4.80;;
31990;SDS011;18508;49.386;8.370;2023-04-25T14:50:08;9.40;;;4.70;;
31990;SDS011;18508;49.386;8.370;2023-04-25T14:52:37;9.73;;;4.90;;
31990;SDS011;18508;49.386;8.370;2023-04-25T14:55:05;10.73;;;4.88;;
31990;SDS011;18508;49.386;8.370;2023-04-25T14:57:34;14.13;;;5.90;;